createdAt,value
2022-09-10T00:02:41.151Z,16.73
2022-09-10T00:05:29.601Z,15.50
2022-09-10T00:08:18.699Z,15.80
2022-09-10T00:11:08.081Z,15.95
2022-09-10T00:13:57.418Z,17.20
2022-09-10T00:16:44.865Z,16.05
2022-09-10T00:19:32.405Z,22.73
2022-09-10T00:22:20.388Z,18.08
2022-09-10T00:25:08.539Z,11.95
2022-09-10T00:27:56.483Z,16.92
2022-09-10T00:30:46.699Z,11.60
2022-09-10T00:33:34.226Z,13.48
2022-09-10T00:36:24.722Z,13.80
2022-09-10T00:39:20.625Z,13.98
2022-09-10T07:45:03.993Z,9.73
2022-09-10T07:47:51.823Z,15.68
2022-09-10T07:50:39.227Z,11.32
2022-09-10T07:53:26.588Z,9.63
2022-09-10T07:56:14.005Z,11.55
2022-09-10T07:59:02.647Z,18.70
2022-09-10T08:01:50.266Z,9.95
2022-09-10T08:04:37.652Z,11.07
2022-09-10T08:07:24.987Z,10.63
2022-09-10T08:10:13.517Z,10.63
2022-09-10T08:13:00.866Z,6.70
2022-09-10T08:15:48.764Z,6.50
2022-09-10T08:18:36.603Z,8.73
2022-09-10T08:21:25.844Z,11.15
2022-09-10T08:24:13.633Z,5.57
2022-09-10T08:27:00.929Z,12.80
2022-09-10T08:29:48.366Z,10.98
2022-09-10T08:32:36.084Z,8.25
2022-09-10T08:35:24.443Z,9.35
2022-09-10T08:38:13.020Z,10.45
2022-09-10T08:41:02.391Z,13.20
2022-09-10T08:43:58.004Z,19.58
2022-09-10T08:46:49.844Z,10.15
2022-09-10T08:49:48.985Z,17.38
2022-09-10T08:52:41.838Z,13.82
2022-09-10T08:55:35.740Z,16.77
2022-09-10T08:58:28.515Z,15.85
2022-09-10T09:01:32.245Z,23.85
2022-09-10T09:04:34.574Z,21.83
2022-09-10T09:07:22.397Z,16.42
2022-09-10T09:10:25.261Z,22.15
2022-09-10T09:13:26.916Z,35.38
2022-09-10T09:16:35.551Z,21.80
2022-09-10T09:19:34.129Z,32.42
2022-09-10T09:22:38.098Z,14.82
2022-09-10T09:25:38.666Z,18.77
2022-09-10T09:28:43.594Z,11.10
2022-09-10T09:31:38.732Z,16.25
2022-09-10T09:34:36.649Z,12.63
2022-09-10T09:37:27.177Z,12.88
2022-09-10T09:40:20.765Z,13.82
2022-09-10T09:43:21.423Z,13.75
2022-09-10T09:46:15.850Z,17.13
2022-09-10T09:49:03.581Z,16.27
2022-09-10T09:51:52.097Z,13.73
2022-09-10T09:55:13.030Z,10.63
2022-09-10T09:58:21.666Z,14.68
2022-09-10T10:01:39.851Z,12.50
2022-09-10T10:04:31.166Z,18.98
2022-09-10T10:07:25.989Z,13.98
2022-09-10T10:10:24.330Z,12.40
2022-09-10T10:13:21.661Z,16.85
2022-09-10T10:16:22.653Z,20.33
2022-09-10T10:19:36.929Z,28.30
2022-09-10T10:22:27.124Z,19.48
2022-09-10T10:25:40.768Z,13.48
2022-09-10T10:28:28.720Z,23.02
2022-09-10T10:31:17.300Z,14.70
2022-09-10T10:34:16.878Z,17.08
2022-09-10T10:37:19.748Z,16.52
2022-09-10T10:40:15.992Z,11.75
2022-09-10T10:43:15.124Z,20.92
2022-09-10T10:46:18.719Z,19.67
2022-09-10T10:49:11.953Z,16.75
2022-09-10T10:52:21.789Z,19.10
2022-09-10T10:55:28.239Z,13.10
2022-09-10T10:59:00.946Z,23.13
2022-09-10T11:01:53.514Z,11.10
2022-09-10T11:04:46.126Z,13.95
2022-09-10T11:07:39.893Z,10.57
2022-09-10T11:10:39.323Z,17.95
2022-09-10T11:13:36.721Z,12.02
2022-09-10T11:16:28.951Z,10.00
2022-09-10T11:19:22.306Z,15.75
2022-09-10T11:22:23.846Z,10.60
2022-09-10T11:28:14.236Z,8.43
2022-09-10T11:31:12.907Z,8.63
2022-09-10T11:34:28.691Z,15.50
2022-09-10T11:38:04.331Z,9.63
2022-09-10T11:41:06.616Z,11.93
2022-09-10T11:44:11.048Z,15.25
2022-09-10T11:47:06.856Z,10.68
2022-09-10T11:50:01.553Z,11.27
2022-09-10T11:52:49.421Z,8.73
2022-09-10T11:55:55.253Z,12.73
2022-09-10T11:59:08.855Z,7.30
2022-09-10T12:02:27.364Z,10.02
2022-09-10T12:05:51.930Z,10.10
2022-09-10T12:08:55.469Z,12.98
2022-09-10T12:12:25.609Z,12.40
2022-09-10T12:15:23.301Z,16.67
2022-09-10T12:18:17.429Z,12.88
2022-09-10T12:21:13.849Z,13.30
2022-09-10T12:24:03.804Z,14.30
2022-09-10T12:26:52.373Z,14.13
2022-09-10T12:29:40.864Z,8.45
2022-09-10T12:32:29.861Z,9.48
2022-09-10T12:35:35.488Z,10.00
2022-09-10T12:38:44.477Z,17.95
2022-09-10T12:41:31.879Z,10.45
2022-09-10T12:44:34.735Z,9.23
2022-09-10T12:47:43.596Z,11.30
2022-09-10T12:50:35.050Z,20.90
2022-09-10T12:56:57.910Z,7.07
2022-09-10T13:00:04.263Z,19.80
2022-09-10T13:02:58.564Z,16.38
2022-09-10T13:05:47.457Z,9.73
2022-09-10T13:08:41.690Z,12.15
2022-09-10T13:11:33.464Z,10.00
2022-09-10T13:14:26.351Z,12.48
2022-09-10T13:17:35.471Z,9.88
2022-09-10T13:20:22.744Z,8.52
2022-09-10T13:23:10.343Z,11.13
2022-09-10T13:26:31.169Z,9.35
2022-09-10T13:29:39.847Z,10.23
2022-09-10T13:32:40.043Z,7.65
2022-09-10T13:35:49.565Z,10.25
2022-09-10T13:39:04.884Z,6.55
2022-09-10T13:42:30.325Z,4.75
2022-09-10T13:45:28.361Z,4.95
2022-09-10T13:48:52.609Z,3.85
2022-09-10T13:51:54.533Z,5.68
2022-09-10T13:54:56.018Z,4.82
2022-09-10T13:57:47.309Z,9.05
2022-09-10T14:00:42.190Z,3.53
2022-09-10T14:03:32.967Z,4.00
2022-09-10T14:06:25.115Z,7.82
2022-09-10T14:09:12.643Z,5.78
2022-09-10T14:12:03.861Z,6.45
2022-09-10T14:14:57.222Z,3.60
2022-09-10T14:17:50.735Z,5.18
2022-09-10T14:20:40.092Z,7.78
2022-09-10T14:23:29.940Z,5.20
2022-09-10T14:26:26.544Z,6.65
2022-09-10T14:29:24.611Z,4.07
2022-09-10T14:32:25.828Z,3.70
2022-09-10T14:38:23.564Z,5.60
2022-09-10T14:41:21.742Z,5.10
2022-09-10T14:44:20.385Z,3.50
2022-09-10T14:47:10.771Z,7.10
2022-09-10T14:50:24.909Z,5.10
2022-09-10T14:53:12.447Z,4.75
2022-09-10T14:56:00.264Z,12.65
2022-09-10T14:58:51.108Z,6.53
2022-09-10T15:01:40.985Z,11.90
2022-09-10T15:04:30.221Z,3.63
2022-09-10T15:07:17.731Z,5.10
2022-09-10T15:10:05.638Z,2.45
2022-09-10T15:12:53.254Z,7.72
2022-09-10T15:15:40.984Z,6.45
2022-09-10T15:18:28.246Z,2.65
2022-09-10T15:21:16.362Z,2.55
2022-09-10T15:24:04.147Z,4.55
2022-09-10T15:26:52.557Z,5.90
2022-09-10T15:29:40.135Z,5.45
2022-09-10T15:32:27.437Z,5.13
2022-09-10T15:35:14.765Z,3.60
2022-09-10T15:38:02.173Z,4.45
2022-09-10T15:40:50.159Z,3.55
2022-09-10T15:43:39.885Z,4.88
2022-09-10T15:46:27.444Z,6.28
2022-09-10T15:49:14.755Z,3.72
2022-09-10T15:52:02.893Z,6.85
2022-09-10T15:54:50.217Z,7.88
2022-09-10T15:57:37.630Z,6.10
2022-09-10T16:00:25.061Z,5.13
2022-09-10T16:03:12.385Z,6.30
2022-09-10T16:06:01.849Z,3.97
2022-09-10T16:08:51.134Z,5.75
2022-09-10T16:11:40.459Z,4.20
2022-09-10T16:14:27.912Z,4.00
2022-09-10T16:17:17.409Z,5.15
2022-09-10T16:20:05.325Z,8.15
2022-09-10T16:22:53.716Z,6.93
2022-09-10T16:25:53.168Z,6.15
2022-09-10T16:28:41.585Z,4.63
2022-09-10T16:31:39.655Z,8.45
2022-09-10T16:34:26.996Z,8.63
2022-09-10T16:37:14.295Z,7.57
2022-09-10T16:40:02.067Z,6.13
2022-09-10T16:42:49.720Z,7.13
2022-09-10T16:45:37.342Z,6.30
2022-09-10T16:48:24.916Z,10.07
2022-09-10T16:51:18.003Z,10.40
2022-09-10T16:54:06.778Z,9.90
2022-09-10T16:56:54.060Z,8.57
2022-09-10T16:59:41.367Z,6.43
2022-09-10T17:02:30.774Z,6.57
2022-09-10T17:05:18.279Z,5.05
2022-09-10T17:08:06.361Z,11.00
2022-09-10T17:10:54.453Z,9.55
2022-09-10T17:13:42.486Z,7.90
2022-09-10T17:16:32.810Z,9.63
2022-09-10T17:19:26.579Z,7.20
2022-09-10T17:22:13.931Z,11.55
2022-09-10T17:25:01.515Z,12.98
2022-09-10T17:27:48.833Z,15.07
2022-09-10T17:30:36.096Z,13.18
2022-09-10T17:33:27.141Z,15.82
2022-09-10T17:36:14.855Z,17.05
2022-09-10T17:39:02.214Z,16.25
2022-09-10T17:41:50.259Z,13.18
2022-09-10T17:44:37.545Z,10.50
2022-09-10T17:47:25.178Z,12.40
2022-09-10T17:50:12.770Z,10.55
2022-09-10T17:53:00.029Z,10.90
2022-09-10T17:55:47.788Z,10.23
2022-09-10T17:58:35.608Z,8.75
2022-09-10T18:01:28.419Z,11.25
2022-09-10T18:04:15.822Z,9.60
2022-09-10T18:07:03.498Z,10.48
2022-09-10T18:09:50.889Z,13.27
2022-09-10T18:12:38.252Z,9.65
2022-09-10T18:15:27.153Z,12.20
2022-09-10T18:18:14.423Z,13.23
2022-09-10T18:21:12.069Z,10.00
2022-09-10T18:24:03.778Z,10.40
2022-09-10T18:29:42.254Z,9.25
2022-09-10T18:32:29.753Z,11.35
2022-09-10T18:35:17.782Z,10.88
2022-09-10T18:38:05.592Z,11.45
2022-09-10T18:40:54.382Z,9.73
2022-09-10T18:43:41.821Z,9.30
2022-09-10T18:46:30.018Z,13.00
2022-09-10T18:49:21.350Z,21.05
2022-09-10T18:52:13.113Z,10.65
2022-09-10T18:55:00.724Z,11.88
2022-09-10T18:57:48.067Z,14.82
2022-09-10T19:00:35.657Z,13.45
2022-09-10T19:03:22.936Z,12.95
2022-09-10T19:06:13.123Z,12.15
2022-09-10T19:09:08.868Z,17.27
2022-09-10T19:11:59.381Z,16.77
2022-09-10T19:14:46.673Z,17.50
2022-09-10T19:17:34.415Z,22.63
2022-09-10T19:20:22.011Z,19.60
2022-09-10T19:23:09.822Z,22.50
2022-09-10T19:25:57.397Z,22.10
2022-09-10T19:28:45.650Z,29.25
2022-09-10T19:31:34.724Z,23.27
2022-09-10T19:34:22.537Z,25.02
2022-09-10T19:37:09.985Z,34.00
2022-09-10T19:39:57.429Z,42.63
2022-09-10T19:42:44.769Z,39.78
2022-09-10T19:45:32.160Z,37.40
2022-09-10T19:48:20.069Z,33.15
2022-09-10T19:51:10.431Z,34.60
2022-09-10T19:54:00.345Z,35.97
2022-09-10T19:56:47.766Z,33.78
2022-09-10T19:59:35.928Z,33.28
2022-09-10T20:02:23.659Z,28.20
2022-09-10T20:05:11.064Z,32.67
2022-09-10T20:07:58.360Z,30.08
2022-09-10T20:10:51.912Z,37.15
2022-09-10T20:13:39.588Z,38.47
2022-09-10T20:16:28.181Z,34.67
2022-09-10T20:19:18.446Z,36.38
2022-09-10T20:22:06.249Z,35.13
2022-09-10T20:24:53.597Z,33.33
2022-09-10T20:27:40.964Z,35.70
2022-09-10T20:30:28.505Z,33.65
2022-09-10T20:33:16.710Z,34.15
2022-09-10T20:36:06.376Z,34.15
2022-09-10T20:38:54.445Z,40.25
2022-09-10T20:41:43.191Z,44.55
2022-09-10T20:44:33.491Z,45.03
2022-09-10T20:47:24.238Z,46.60
2022-09-10T20:50:13.651Z,44.42
2022-09-10T20:53:01.826Z,49.67
2022-09-10T20:55:49.429Z,51.40
2022-09-10T20:58:37.912Z,45.67
2022-09-10T21:01:27.716Z,52.75
2022-09-10T21:04:15.198Z,51.67
2022-09-10T21:07:02.549Z,48.45
2022-09-10T21:09:49.997Z,52.45
2022-09-10T21:12:37.431Z,50.17
2022-09-10T21:15:24.784Z,53.58
2022-09-10T21:18:13.287Z,51.47
2022-09-10T21:21:12.452Z,49.65
2022-09-10T21:24:04.921Z,48.78
2022-09-10T21:26:53.398Z,58.00
2022-09-10T21:29:40.707Z,51.58
2022-09-10T21:32:28.313Z,51.70
2022-09-10T21:35:16.363Z,57.10
2022-09-10T21:38:03.773Z,53.75
2022-09-10T21:40:58.917Z,63.22
2022-09-10T21:43:47.225Z,58.83
2022-09-10T21:46:34.951Z,61.03
2022-09-10T21:49:22.377Z,54.63
2022-09-10T21:52:10.148Z,61.92
2022-09-10T21:54:57.694Z,58.13
2022-09-10T21:57:45.309Z,59.33
2022-09-10T22:00:32.897Z,56.58
2022-09-10T22:03:20.345Z,56.30
2022-09-10T22:06:13.726Z,61.08
2022-09-10T22:09:03.896Z,53.47
2022-09-10T22:11:54.318Z,55.88
2022-09-10T22:14:41.723Z,60.35
2022-09-10T22:17:29.064Z,57.35
2022-09-10T22:20:16.413Z,55.90
2022-09-10T22:23:04.334Z,55.08
2022-09-10T22:25:55.439Z,67.20
2022-09-10T22:28:43.322Z,55.10
2022-09-10T22:31:33.379Z,55.45
2022-09-10T22:34:20.829Z,60.38
2022-09-10T22:37:08.162Z,48.33
2022-09-10T22:39:55.775Z,59.60
2022-09-10T22:42:43.238Z,56.72
2022-09-10T22:45:32.463Z,56.38
2022-09-10T22:48:19.728Z,52.55
2022-09-10T22:51:11.338Z,51.95
2022-09-10T22:53:59.366Z,59.15
2022-09-10T22:56:46.732Z,59.35
2022-09-10T22:59:37.737Z,55.75
2022-09-10T23:02:25.301Z,54.53
2022-09-10T23:05:13.124Z,53.47
2022-09-10T23:08:00.734Z,53.30
2022-09-10T23:10:48.306Z,51.53
2022-09-10T23:13:36.223Z,49.75
2022-09-10T23:16:32.225Z,52.78
2022-09-10T23:19:22.387Z,56.53
2022-09-10T23:22:10.432Z,63.85
2022-09-10T23:24:58.274Z,54.08
2022-09-10T23:27:48.391Z,59.75
2022-09-10T23:30:36.236Z,51.38
2022-09-10T23:33:23.618Z,58.08
2022-09-10T23:36:13.571Z,54.40
2022-09-10T23:39:04.494Z,53.38
2022-09-10T23:41:54.620Z,48.77
2022-09-10T23:44:44.390Z,52.38
2022-09-10T23:47:31.741Z,55.50
2022-09-10T23:50:19.010Z,57.85
2022-09-10T23:53:06.677Z,52.13
2022-09-10T23:55:54.799Z,47.40
2022-09-10T23:58:42.097Z,50.92
